sensor_id;sensor_type;location;lat;lon;timestamp;P1;durP1;ratioP1;P2;durP2;ratioP2
75289;SDS011;63883;48.996;20.804;2023-02-01T00:01:59;15.20;;;6.82;;
75289;SDS011;63883;48.996;20.804;2023-02-01T00:04:25;14.93;;;7.20;;
75289;SDS011;63883;48.996;20.804;2023-02-01T00:06:51;21.33;;;9.93;;
75289;SDS011;63883;48.996;20.804;2023-02-01T00:09:17;20.23;;;9.30;;
75289;SDS011;63883;48.996;20.804;2023-02-01T00:11:43;18.27;;;8.35;;
75289;SDS011;63883;48.996;20.804;2023-02-01T00:14:09;20.98;;;9.05;;
75289;SDS011;63883;48.996;20.804;2023-02-01T00:16:35;17.58;;;8.38;;
75289;SDS011;63883;48.996;20.804;2023-02-01T00:19:03;17.05;;;8.50;;
75289;SDS011;63883;48.996;20.804;2023-02-01T00:21:31;13.98;;;7.55;;
75289;SDS011;63883;48.996;20.804;2023-02-01T00:23:57;17.23;;;8.13;;
75289;SDS011;63883;48.996;20.804;2023-02-01T00:28:57;18.50;;;8.18;;
75289;SDS011;63883;48.996;20.804;2023-02-01T00:31:22;15.93;;;7.60;;
75289;SDS011;63883;48.996;20.804;2023-02-01T00:33:48;12.82;;;6.90;;
75289;SDS011;63883;48.996;20.804;2023-02-01T00:36:15;12.77;;;6.00;;
75289;SDS011;63883;48.996;20.804;2023-02-01T00:38:41;14.88;;;7.30;;
75289;SDS011;63883;48.996;20.804;2023-02-01T00:41:09;13.45;;;6.20;;
75289;SDS011;63883;48.996;20.804;2023-02-01T00:43:37;17.13;;;6.97;;
75289;SDS011;63883;48.996;20.804;2023-02-01T00:46:04;18.67;;;6.70;;
75289;SDS011;63883;48.996;20.804;2023-02-01T00:48:30;12.68;;;6.10;;
75289;SDS011;63883;48.996;20.804;2023-02-01T00:51:00;13.05;;;5.65;;
75289;SDS011;63883;48.996;20.804;2023-02-01T00:53:27;11.13;;;5.28;;
75289;SDS011;63883;48.996;20.804;2023-02-01T00:55:52;10.23;;;5.18;;
75289;SDS011;63883;48.996;20.804;2023-02-01T00:58:18;9.48;;;4.80;;
75289;SDS011;63883;48.996;20.804;2023-02-01T01:00:44;15.05;;;6.75;;
75289;SDS011;63883;48.996;20.804;2023-02-01T01:03:10;14.40;;;5.57;;
75289;SDS011;63883;48.996;20.804;2023-02-01T01:05:48;8.05;;;4.15;;
75289;SDS011;63883;48.996;20.804;2023-02-01T01:08:14;6.43;;;3.63;;
75289;SDS011;63883;48.996;20.804;2023-02-01T01:10:41;6.32;;;3.47;;
75289;SDS011;63883;48.996;20.804;2023-02-01T01:13:07;7.85;;;3.90;;
75289;SDS011;63883;48.996;20.804;2023-02-01T01:15:37;10.05;;;4.70;;
75289;SDS011;63883;48.996;20.804;2023-02-01T01:18:04;11.38;;;4.85;;
75289;SDS011;63883;48.996;20.804;2023-02-01T01:20:31;10.15;;;4.55;;
75289;SDS011;63883;48.996;20.804;2023-02-01T01:22:58;8.77;;;4.30;;
75289;SDS011;63883;48.996;20.804;2023-02-01T01:25:24;6.45;;;3.60;;
75289;SDS011;63883;48.996;20.804;2023-02-01T01:27:50;9.50;;;3.92;;
75289;SDS011;63883;48.996;20.804;2023-02-01T01:30:15;7.78;;;4.38;;
75289;SDS011;63883;48.996;20.804;2023-02-01T01:32:42;7.47;;;3.78;;
75289;SDS011;63883;48.996;20.804;2023-02-01T01:35:07;7.18;;;4.03;;
75289;SDS011;63883;48.996;20.804;2023-02-01T01:37:33;6.28;;;3.40;;
75289;SDS011;63883;48.996;20.804;2023-02-01T01:40:00;6.28;;;3.17;;
75289;SDS011;63883;48.996;20.804;2023-02-01T01:42:26;7.22;;;3.47;;
75289;SDS011;63883;48.996;20.804;2023-02-01T01:47:24;7.45;;;3.80;;
75289;SDS011;63883;48.996;20.804;2023-02-01T01:52:18;6.32;;;3.47;;
75289;SDS011;63883;48.996;20.804;2023-02-01T01:54:45;6.63;;;3.67;;
75289;SDS011;63883;48.996;20.804;2023-02-01T01:57:14;9.00;;;3.88;;
75289;SDS011;63883;48.996;20.804;2023-02-01T01:59:50;6.20;;;3.30;;
75289;SDS011;63883;48.996;20.804;2023-02-01T02:02:22;6.88;;;3.80;;
75289;SDS011;63883;48.996;20.804;2023-02-01T02:04:48;8.88;;;3.72;;
75289;SDS011;63883;48.996;20.804;2023-02-01T02:07:16;6.80;;;3.80;;
75289;SDS011;63883;48.996;20.804;2023-02-01T02:09:45;8.63;;;4.10;;
75289;SDS011;63883;48.996;20.804;2023-02-01T02:12:11;7.40;;;4.25;;
75289;SDS011;63883;48.996;20.804;2023-02-01T02:14:37;9.40;;;4.45;;
75289;SDS011;63883;48.996;20.804;2023-02-01T02:22:24;8.63;;;5.47;;
75289;SDS011;63883;48.996;20.804;2023-02-01T02:33:40;9.18;;;4.40;;
75289;SDS011;63883;48.996;20.804;2023-02-01T02:44:47;9.43;;;5.63;;
75289;SDS011;63883;48.996;20.804;2023-02-01T02:47:42;13.35;;;5.80;;
75289;SDS011;63883;48.996;20.804;2023-02-01T02:50:35;16.45;;;6.13;;
75289;SDS011;63883;48.996;20.804;2023-02-01T02:53:37;10.60;;;5.32;;
75289;SDS011;63883;48.996;20.804;2023-02-01T02:56:27;8.93;;;4.60;;
75289;SDS011;63883;48.996;20.804;2023-02-01T02:59:14;9.38;;;4.93;;
75289;SDS011;63883;48.996;20.804;2023-02-01T03:02:02;16.10;;;9.02;;
75289;SDS011;63883;48.996;20.804;2023-02-01T03:04:46;22.15;;;11.57;;
75289;SDS011;63883;48.996;20.804;2023-02-01T03:07:56;22.88;;;12.15;;
75289;SDS011;63883;48.996;20.804;2023-02-01T03:10:30;21.75;;;11.52;;
75289;SDS011;63883;48.996;20.804;2023-02-01T03:19:14;25.75;;;13.30;;
75289;SDS011;63883;48.996;20.804;2023-02-01T03:21:45;29.63;;;13.73;;
75289;SDS011;63883;48.996;20.804;2023-02-01T03:24:29;29.60;;;13.27;;
75289;SDS011;63883;48.996;20.804;2023-02-01T03:27:26;27.98;;;13.40;;
75289;SDS011;63883;48.996;20.804;2023-02-01T03:30:04;27.45;;;13.88;;
75289;SDS011;63883;48.996;20.804;2023-02-01T03:32:36;29.00;;;13.98;;
75289;SDS011;63883;48.996;20.804;2023-02-01T03:35:26;27.13;;;14.18;;
75289;SDS011;63883;48.996;20.804;2023-02-01T03:38:01;31.38;;;15.73;;
75289;SDS011;63883;48.996;20.804;2023-02-01T03:40:51;31.15;;;13.57;;
75289;SDS011;63883;48.996;20.804;2023-02-01T03:43:22;28.88;;;14.23;;
75289;SDS011;63883;48.996;20.804;2023-02-01T03:45:52;23.80;;;12.68;;
75289;SDS011;63883;48.996;20.804;2023-02-01T03:48:23;24.42;;;11.82;;
75289;SDS011;63883;48.996;20.804;2023-02-01T03:50:53;25.55;;;11.50;;
75289;SDS011;63883;48.996;20.804;2023-02-01T03:53:23;23.75;;;11.95;;
75289;SDS011;63883;48.996;20.804;2023-02-01T03:55:50;25.45;;;13.48;;
75289;SDS011;63883;48.996;20.804;2023-02-01T03:58:18;26.02;;;12.15;;
75289;SDS011;63883;48.996;20.804;2023-02-01T04:00:53;23.20;;;11.20;;
75289;SDS011;63883;48.996;20.804;2023-02-01T04:05:47;17.88;;;9.30;;
75289;SDS011;63883;48.996;20.804;2023-02-01T04:08:14;19.33;;;9.32;;
75289;SDS011;63883;48.996;20.804;2023-02-01T04:10:40;19.25;;;9.05;;
75289;SDS011;63883;48.996;20.804;2023-02-01T04:13:06;19.05;;;9.30;;
75289;SDS011;63883;48.996;20.804;2023-02-01T04:15:32;11.25;;;6.47;;
75289;SDS011;63883;48.996;20.804;2023-02-01T04:17:58;11.60;;;6.68;;
75289;SDS011;63883;48.996;20.804;2023-02-01T04:20:24;14.10;;;7.20;;
75289;SDS011;63883;48.996;20.804;2023-02-01T04:22:50;11.27;;;5.85;;
75289;SDS011;63883;48.996;20.804;2023-02-01T04:25:16;10.85;;;5.70;;
75289;SDS011;63883;48.996;20.804;2023-02-01T04:27:42;8.63;;;4.65;;
75289;SDS011;63883;48.996;20.804;2023-02-01T04:30:08;7.43;;;4.22;;
75289;SDS011;63883;48.996;20.804;2023-02-01T04:32:35;8.68;;;3.70;;
75289;SDS011;63883;48.996;20.804;2023-02-01T04:35:02;11.55;;;5.80;;
75289;SDS011;63883;48.996;20.804;2023-02-01T04:37:28;7.82;;;4.05;;
75289;SDS011;63883;48.996;20.804;2023-02-01T04:39:54;9.32;;;4.93;;
75289;SDS011;63883;48.996;20.804;2023-02-01T04:42:20;10.27;;;5.50;;
75289;SDS011;63883;48.996;20.804;2023-02-01T04:44:46;8.10;;;4.47;;
75289;SDS011;63883;48.996;20.804;2023-02-01T04:47:12;4.25;;;3.03;;
75289;SDS011;63883;48.996;20.804;2023-02-01T04:49:37;8.00;;;4.22;;
75289;SDS011;63883;48.996;20.804;2023-02-01T04:52:03;3.90;;;2.22;;
75289;SDS011;63883;48.996;20.804;2023-02-01T04:54:29;3.88;;;2.47;;
75289;SDS011;63883;48.996;20.804;2023-02-01T04:56:55;6.80;;;4.07;;
75289;SDS011;63883;48.996;20.804;2023-02-01T04:59:21;18.42;;;8.93;;
75289;SDS011;63883;48.996;20.804;2023-02-01T05:01:46;10.40;;;4.30;;
75289;SDS011;63883;48.996;20.804;2023-02-01T05:04:12;13.15;;;6.72;;
75289;SDS011;63883;48.996;20.804;2023-02-01T05:06:38;15.57;;;7.45;;
75289;SDS011;63883;48.996;20.804;2023-02-01T05:09:04;14.95;;;6.78;;
75289;SDS011;63883;48.996;20.804;2023-02-01T05:11:29;20.90;;;9.10;;
75289;SDS011;63883;48.996;20.804;2023-02-01T05:14:13;11.65;;;6.25;;
75289;SDS011;63883;48.996;20.804;2023-02-01T05:16:39;18.30;;;7.82;;
75289;SDS011;63883;48.996;20.804;2023-02-01T05:19:05;17.40;;;7.78;;
75289;SDS011;63883;48.996;20.804;2023-02-01T05:21:30;11.40;;;5.85;;
75289;SDS011;63883;48.996;20.804;2023-02-01T05:23:56;12.35;;;6.18;;
75289;SDS011;63883;48.996;20.804;2023-02-01T05:26:46;3.55;;;2.55;;
75289;SDS011;63883;48.996;20.804;2023-02-01T05:29:13;2.17;;;1.80;;
75289;SDS011;63883;48.996;20.804;2023-02-01T05:31:39;1.67;;;1.40;;
75289;SDS011;63883;48.996;20.804;2023-02-01T05:34:05;2.05;;;1.25;;
75289;SDS011;63883;48.996;20.804;2023-02-01T05:36:31;1.38;;;1.10;;
75289;SDS011;63883;48.996;20.804;2023-02-01T05:38:57;1.20;;;1.00;;
75289;SDS011;63883;48.996;20.804;2023-02-01T05:41:23;1.73;;;1.40;;
75289;SDS011;63883;48.996;20.804;2023-02-01T05:43:49;2.65;;;1.90;;
75289;SDS011;63883;48.996;20.804;2023-02-01T05:46:14;2.95;;;1.88;;
75289;SDS011;63883;48.996;20.804;2023-02-01T05:48:40;9.27;;;4.50;;
75289;SDS011;63883;48.996;20.804;2023-02-01T05:51:07;10.75;;;5.57;;
75289;SDS011;63883;48.996;20.804;2023-02-01T05:53:33;10.00;;;4.95;;
75289;SDS011;63883;48.996;20.804;2023-02-01T05:55:58;8.57;;;4.70;;
75289;SDS011;63883;48.996;20.804;2023-02-01T05:58:24;9.32;;;4.63;;
75289;SDS011;63883;48.996;20.804;2023-02-01T06:00:50;5.18;;;2.60;;
75289;SDS011;63883;48.996;20.804;2023-02-01T06:03:16;3.10;;;1.98;;
75289;SDS011;63883;48.996;20.804;2023-02-01T06:05:43;2.90;;;1.73;;
75289;SDS011;63883;48.996;20.804;2023-02-01T06:08:10;3.03;;;2.28;;
75289;SDS011;63883;48.996;20.804;2023-02-01T06:10:36;2.70;;;1.83;;
75289;SDS011;63883;48.996;20.804;2023-02-01T06:13:02;2.38;;;1.88;;
75289;SDS011;63883;48.996;20.804;2023-02-01T06:15:28;4.72;;;2.90;;
75289;SDS011;63883;48.996;20.804;2023-02-01T06:17:54;8.05;;;4.57;;
75289;SDS011;63883;48.996;20.804;2023-02-01T06:20:20;12.48;;;6.95;;
75289;SDS011;63883;48.996;20.804;2023-02-01T06:22:46;11.45;;;6.60;;
75289;SDS011;63883;48.996;20.804;2023-02-01T06:25:11;12.05;;;6.28;;
75289;SDS011;63883;48.996;20.804;2023-02-01T06:27:37;10.15;;;6.78;;
75289;SDS011;63883;48.996;20.804;2023-02-01T06:30:04;10.45;;;5.80;;
75289;SDS011;63883;48.996;20.804;2023-02-01T06:32:32;24.60;;;8.20;;
75289;SDS011;63883;48.996;20.804;2023-02-01T06:34:57;14.45;;;7.97;;
75289;SDS011;63883;48.996;20.804;2023-02-01T06:37:24;22.08;;;9.40;;
75289;SDS011;63883;48.996;20.804;2023-02-01T06:39:50;17.05;;;7.55;;
75289;SDS011;63883;48.996;20.804;2023-02-01T06:42:16;18.48;;;8.32;;
75289;SDS011;63883;48.996;20.804;2023-02-01T06:44:42;21.40;;;8.73;;
75289;SDS011;63883;48.996;20.804;2023-02-01T06:47:08;19.02;;;8.18;;
75289;SDS011;63883;48.996;20.804;2023-02-01T06:49:34;15.20;;;7.53;;
75289;SDS011;63883;48.996;20.804;2023-02-01T06:51:59;7.93;;;4.32;;
75289;SDS011;63883;48.996;20.804;2023-02-01T06:54:28;4.13;;;2.60;;
75289;SDS011;63883;48.996;20.804;2023-02-01T06:56:57;3.58;;;2.40;;
75289;SDS011;63883;48.996;20.804;2023-02-01T06:59:23;3.30;;;1.73;;
75289;SDS011;63883;48.996;20.804;2023-02-01T07:01:49;2.58;;;1.80;;
75289;SDS011;63883;48.996;20.804;2023-02-01T07:04:15;2.22;;;1.60;;
75289;SDS011;63883;48.996;20.804;2023-02-01T07:06:41;3.33;;;1.85;;
75289;SDS011;63883;48.996;20.804;2023-02-01T07:09:07;3.30;;;1.60;;
75289;SDS011;63883;48.996;20.804;2023-02-01T07:11:33;6.25;;;3.45;;
75289;SDS011;63883;48.996;20.804;2023-02-01T07:13:59;5.93;;;3.60;;
75289;SDS011;63883;48.996;20.804;2023-02-01T07:16:25;9.27;;;5.07;;
75289;SDS011;63883;48.996;20.804;2023-02-01T07:18:51;10.40;;;5.35;;
75289;SDS011;63883;48.996;20.804;2023-02-01T07:21:18;12.07;;;6.15;;
75289;SDS011;63883;48.996;20.804;2023-02-01T07:23:44;16.17;;;7.97;;
75289;SDS011;63883;48.996;20.804;2023-02-01T07:26:11;12.38;;;6.55;;
75289;SDS011;63883;48.996;20.804;2023-02-01T07:28:38;21.10;;;12.52;;
75289;SDS011;63883;48.996;20.804;2023-02-01T07:31:05;10.13;;;5.32;;
75289;SDS011;63883;48.996;20.804;2023-02-01T07:33:35;9.05;;;5.05;;
75289;SDS011;63883;48.996;20.804;2023-02-01T07:36:02;9.65;;;5.55;;
75289;SDS011;63883;48.996;20.804;2023-02-01T07:38:29;7.93;;;4.22;;
75289;SDS011;63883;48.996;20.804;2023-02-01T07:40:59;11.82;;;5.93;;
75289;SDS011;63883;48.996;20.804;2023-02-01T07:43:25;12.60;;;6.65;;
75289;SDS011;63883;48.996;20.804;2023-02-01T07:45:52;11.18;;;6.28;;
75289;SDS011;63883;48.996;20.804;2023-02-01T07:48:18;4.25;;;2.08;;
75289;SDS011;63883;48.996;20.804;2023-02-01T07:50:45;2.80;;;1.80;;
75289;SDS011;63883;48.996;20.804;2023-02-01T07:53:10;2.60;;;1.98;;
75289;SDS011;63883;48.996;20.804;2023-02-01T07:55:39;1.92;;;1.70;;
75289;SDS011;63883;48.996;20.804;2023-02-01T07:58:06;2.17;;;1.70;;
75289;SDS011;63883;48.996;20.804;2023-02-01T08:00:32;4.50;;;2.20;;
75289;SDS011;63883;48.996;20.804;2023-02-01T08:03:16;8.35;;;4.35;;
75289;SDS011;63883;48.996;20.804;2023-02-01T08:05:43;6.85;;;4.13;;
75289;SDS011;63883;48.996;20.804;2023-02-01T08:08:08;7.35;;;4.20;;
75289;SDS011;63883;48.996;20.804;2023-02-01T08:10:34;3.47;;;2.30;;
75289;SDS011;63883;48.996;20.804;2023-02-01T08:13:00;3.15;;;1.73;;
75289;SDS011;63883;48.996;20.804;2023-02-01T08:15:28;2.40;;;1.80;;
75289;SDS011;63883;48.996;20.804;2023-02-01T08:17:54;3.70;;;2.22;;
75289;SDS011;63883;48.996;20.804;2023-02-01T08:20:21;4.03;;;2.60;;
75289;SDS011;63883;48.996;20.804;2023-02-01T08:22:51;3.78;;;2.63;;
75289;SDS011;63883;48.996;20.804;2023-02-01T08:25:17;6.47;;;2.97;;
75289;SDS011;63883;48.996;20.804;2023-02-01T08:27:43;4.90;;;3.45;;
75289;SDS011;63883;48.996;20.804;2023-02-01T08:30:09;6.28;;;3.40;;
75289;SDS011;63883;48.996;20.804;2023-02-01T08:32:35;3.50;;;2.22;;
75289;SDS011;63883;48.996;20.804;2023-02-01T08:35:02;5.43;;;2.40;;
75289;SDS011;63883;48.996;20.804;2023-02-01T08:37:29;4.35;;;1.95;;
75289;SDS011;63883;48.996;20.804;2023-02-01T08:39:55;3.22;;;2.08;;
75289;SDS011;63883;48.996;20.804;2023-02-01T08:42:20;5.57;;;2.60;;
75289;SDS011;63883;48.996;20.804;2023-02-01T08:45:05;5.97;;;2.75;;
75289;SDS011;63883;48.996;20.804;2023-02-01T08:47:33;4.32;;;2.90;;
75289;SDS011;63883;48.996;20.804;2023-02-01T08:50:00;2.97;;;2.42;;
75289;SDS011;63883;48.996;20.804;2023-02-01T08:52:26;3.85;;;2.20;;
75289;SDS011;63883;48.996;20.804;2023-02-01T08:54:52;2.67;;;2.20;;
75289;SDS011;63883;48.996;20.804;2023-02-01T08:57:17;2.55;;;1.95;;
75289;SDS011;63883;48.996;20.804;2023-02-01T08:59:43;5.35;;;2.42;;
75289;SDS011;63883;48.996;20.804;2023-02-01T09:02:12;3.80;;;2.30;;
75289;SDS011;63883;48.996;20.804;2023-02-01T09:04:40;3.78;;;2.50;;
75289;SDS011;63883;48.996;20.804;2023-02-01T09:07:06;3.13;;;2.70;;
75289;SDS011;63883;48.996;20.804;2023-02-01T09:09:32;3.88;;;2.50;;
75289;SDS011;63883;48.996;20.804;2023-02-01T09:11:58;3.75;;;2.60;;
75289;SDS011;63883;48.996;20.804;2023-02-01T09:14:23;5.15;;;2.78;;
75289;SDS011;63883;48.996;20.804;2023-02-01T09:16:49;4.18;;;3.08;;
75289;SDS011;63883;48.996;20.804;2023-02-01T09:19:15;4.15;;;2.63;;
75289;SDS011;63883;48.996;20.804;2023-02-01T09:21:40;5.10;;;2.83;;
75289;SDS011;63883;48.996;20.804;2023-02-01T09:24:06;4.20;;;2.80;;
75289;SDS011;63883;48.996;20.804;2023-02-01T09:26:35;3.70;;;2.35;;
75289;SDS011;63883;48.996;20.804;2023-02-01T09:29:01;4.00;;;2.80;;
75289;SDS011;63883;48.996;20.804;2023-02-01T09:31:29;5.30;;;2.92;;
75289;SDS011;63883;48.996;20.804;2023-02-01T09:33:56;4.20;;;2.80;;
75289;SDS011;63883;48.996;20.804;2023-02-01T09:36:21;4.00;;;2.80;;
75289;SDS011;63883;48.996;20.804;2023-02-01T09:38:48;4.55;;;2.90;;
75289;SDS011;63883;48.996;20.804;2023-02-01T09:41:28;5.63;;;2.80;;
75289;SDS011;63883;48.996;20.804;2023-02-01T09:46:46;4.15;;;2.88;;
75289;SDS011;63883;48.996;20.804;2023-02-01T09:49:14;4.65;;;3.30;;
75289;SDS011;63883;48.996;20.804;2023-02-01T09:51:45;6.75;;;3.42;;
75289;SDS011;63883;48.996;20.804;2023-02-01T09:54:21;4.63;;;2.97;;
75289;SDS011;63883;48.996;20.804;2023-02-01T09:56:54;5.40;;;3.10;;
75289;SDS011;63883;48.996;20.804;2023-02-01T09:59:38;4.80;;;3.30;;
75289;SDS011;63883;48.996;20.804;2023-02-01T10:02:12;4.80;;;3.40;;
75289;SDS011;63883;48.996;20.804;2023-02-01T10:04:42;6.95;;;3.25;;
75289;SDS011;63883;48.996;20.804;2023-02-01T10:28:26;2.47;;;1.70;;
75289;SDS011;63883;48.996;20.804;2023-02-01T10:30:56;5.30;;;2.30;;
75289;SDS011;63883;48.996;20.804;2023-02-01T10:33:30;3.83;;;2.58;;
75289;SDS011;63883;48.996;20.804;2023-02-01T10:38:53;2.30;;;1.58;;
75289;SDS011;63883;48.996;20.804;2023-02-01T10:41:20;3.38;;;1.80;;
75289;SDS011;63883;48.996;20.804;2023-02-01T10:43:51;3.30;;;2.13;;
75289;SDS011;63883;48.996;20.804;2023-02-01T10:46:22;2.78;;;1.88;;
75289;SDS011;63883;48.996;20.804;2023-02-01T10:48:49;7.47;;;3.65;;
75289;SDS011;63883;48.996;20.804;2023-02-01T10:51:25;2.33;;;1.92;;
75289;SDS011;63883;48.996;20.804;2023-02-01T10:54:03;3.47;;;2.10;;
75289;SDS011;63883;48.996;20.804;2023-02-01T10:56:37;4.78;;;2.20;;
75289;SDS011;63883;48.996;20.804;2023-02-01T10:59:04;4.65;;;2.88;;
75289;SDS011;63883;48.996;20.804;2023-02-01T11:01:40;3.40;;;2.10;;
75289;SDS011;63883;48.996;20.804;2023-02-01T11:04:09;6.55;;;3.13;;
75289;SDS011;63883;48.996;20.804;2023-02-01T11:09:18;3.22;;;1.98;;
75289;SDS011;63883;48.996;20.804;2023-02-01T11:14:16;10.43;;;4.00;;
75289;SDS011;63883;48.996;20.804;2023-02-01T11:16:47;4.63;;;2.63;;
75289;SDS011;63883;48.996;20.804;2023-02-01T11:19:15;3.15;;;2.22;;
75289;SDS011;63883;48.996;20.804;2023-02-01T11:21:42;17.15;;;7.53;;
75289;SDS011;63883;48.996;20.804;2023-02-01T11:27:13;11.30;;;5.03;;
75289;SDS011;63883;48.996;20.804;2023-02-01T11:29:42;19.10;;;7.88;;
75289;SDS011;63883;48.996;20.804;2023-02-01T11:32:12;9.23;;;4.55;;
75289;SDS011;63883;48.996;20.804;2023-02-01T11:34:43;3.00;;;2.40;;
75289;SDS011;63883;48.996;20.804;2023-02-01T11:37:26;3.35;;;1.90;;
75289;SDS011;63883;48.996;20.804;2023-02-01T11:42:22;2.72;;;2.10;;
75289;SDS011;63883;48.996;20.804;2023-02-01T11:44:49;3.42;;;2.03;;
75289;SDS011;63883;48.996;20.804;2023-02-01T11:50:00;4.70;;;3.05;;
75289;SDS011;63883;48.996;20.804;2023-02-01T11:55:42;2.53;;;2.10;;
75289;SDS011;63883;48.996;20.804;2023-02-01T11:58:36;3.10;;;2.80;;
75289;SDS011;63883;48.996;20.804;2023-02-01T12:06:53;4.32;;;2.40;;
75289;SDS011;63883;48.996;20.804;2023-02-01T12:12:17;1.83;;;1.48;;
75289;SDS011;63883;48.996;20.804;2023-02-01T12:20:31;1.83;;;1.55;;
75289;SDS011;63883;48.996;20.804;2023-02-01T12:25:56;1.88;;;1.60;;
75289;SDS011;63883;48.996;20.804;2023-02-01T12:28:48;2.85;;;1.60;;
75289;SDS011;63883;48.996;20.804;2023-02-01T12:34:11;1.40;;;1.30;;
75289;SDS011;63883;48.996;20.804;2023-02-01T12:36:47;1.70;;;1.60;;
75289;SDS011;63883;48.996;20.804;2023-02-01T12:39:40;1.92;;;1.38;;
75289;SDS011;63883;48.996;20.804;2023-02-01T12:42:31;2.70;;;1.50;;
75289;SDS011;63883;48.996;20.804;2023-02-01T12:45:18;2.05;;;1.50;;
75289;SDS011;63883;48.996;20.804;2023-02-01T12:48:01;2.13;;;1.70;;
75289;SDS011;63883;48.996;20.804;2023-02-01T12:50:32;5.43;;;2.90;;
75289;SDS011;63883;48.996;20.804;2023-02-01T12:53:27;3.10;;;1.70;;
75289;SDS011;63883;48.996;20.804;2023-02-01T12:55:55;1.52;;;1.30;;
75289;SDS011;63883;48.996;20.804;2023-02-01T12:58:27;1.70;;;1.50;;
75289;SDS011;63883;48.996;20.804;2023-02-01T13:01:08;2.05;;;1.40;;
75289;SDS011;63883;48.996;20.804;2023-02-01T13:04:02;1.45;;;1.35;;
75289;SDS011;63883;48.996;20.804;2023-02-01T13:06:52;5.13;;;2.70;;
75289;SDS011;63883;48.996;20.804;2023-02-01T13:09:39;2.90;;;2.10;;
75289;SDS011;63883;48.996;20.804;2023-02-01T13:12:32;2.10;;;1.80;;
75289;SDS011;63883;48.996;20.804;2023-02-01T13:15:11;3.22;;;2.38;;
75289;SDS011;63883;48.996;20.804;2023-02-01T13:17:42;3.45;;;2.40;;
75289;SDS011;63883;48.996;20.804;2023-02-01T13:20:26;4.93;;;3.10;;
75289;SDS011;63883;48.996;20.804;2023-02-01T13:22:58;2.55;;;2.35;;
75289;SDS011;63883;48.996;20.804;2023-02-01T13:25:47;3.30;;;2.20;;
75289;SDS011;63883;48.996;20.804;2023-02-01T13:28:20;1.58;;;1.48;;
75289;SDS011;63883;48.996;20.804;2023-02-01T13:41:30;2.80;;;1.60;;
75289;SDS011;63883;48.996;20.804;2023-02-01T13:43:59;1.92;;;1.70;;
75289;SDS011;63883;48.996;20.804;2023-02-01T13:46:29;1.65;;;1.30;;
75289;SDS011;63883;48.996;20.804;2023-02-01T13:49:02;1.80;;;1.52;;
75289;SDS011;63883;48.996;20.804;2023-02-01T13:51:35;2.03;;;1.30;;
75289;SDS011;63883;48.996;20.804;2023-02-01T13:56:56;1.92;;;1.50;;
75289;SDS011;63883;48.996;20.804;2023-02-01T14:05:09;2.47;;;1.83;;
75289;SDS011;63883;48.996;20.804;2023-02-01T14:07:40;3.70;;;2.63;;
75289;SDS011;63883;48.996;20.804;2023-02-01T14:13:30;23.00;;;8.18;;
75289;SDS011;63883;48.996;20.804;2023-02-01T14:23:44;14.48;;;5.90;;
75289;SDS011;63883;48.996;20.804;2023-02-01T14:26:16;12.15;;;5.82;;
75289;SDS011;63883;48.996;20.804;2023-02-01T14:28:46;10.23;;;4.90;;
75289;SDS011;63883;48.996;20.804;2023-02-01T14:31:18;14.55;;;5.82;;
75289;SDS011;63883;48.996;20.804;2023-02-01T14:33:55;9.68;;;4.60;;
75289;SDS011;63883;48.996;20.804;2023-02-01T14:36:24;15.50;;;5.82;;
75289;SDS011;63883;48.996;20.804;2023-02-01T14:38:51;11.35;;;4.07;;
75289;SDS011;63883;48.996;20.804;2023-02-01T14:49:34;4.72;;;2.92;;
75289;SDS011;63883;48.996;20.804;2023-02-01T14:52:09;6.45;;;3.63;;
75289;SDS011;63883;48.996;20.804;2023-02-01T14:54:41;11.43;;;5.60;;
75289;SDS011;63883;48.996;20.804;2023-02-01T14:57:13;18.33;;;9.20;;
75289;SDS011;63883;48.996;20.804;2023-02-01T14:59:44;5.60;;;3.30;;
75289;SDS011;63883;48.996;20.804;2023-02-01T15:02:19;5.00;;;3.90;;
75289;SDS011;63883;48.996;20.804;2023-02-01T15:04:54;24.73;;;10.82;;
75289;SDS011;63883;48.996;20.804;2023-02-01T15:07:21;84.10;;;34.55;;
75289;SDS011;63883;48.996;20.804;2023-02-01T15:09:50;21.92;;;11.85;;
75289;SDS011;63883;48.996;20.804;2023-02-01T15:12:18;5.32;;;4.03;;
75289;SDS011;63883;48.996;20.804;2023-02-01T15:17:37;14.68;;;9.52;;
75289;SDS011;63883;48.996;20.804;2023-02-01T15:20:11;11.32;;;6.88;;
75289;SDS011;63883;48.996;20.804;2023-02-01T15:22:39;11.57;;;6.90;;
75289;SDS011;63883;48.996;20.804;2023-02-01T15:25:17;9.68;;;6.78;;
75289;SDS011;63883;48.996;20.804;2023-02-01T15:27:47;9.77;;;6.18;;
75289;SDS011;63883;48.996;20.804;2023-02-01T15:30:21;6.00;;;4.15;;
75289;SDS011;63883;48.996;20.804;2023-02-01T15:32:49;6.10;;;3.70;;
75289;SDS011;63883;48.996;20.804;2023-02-01T15:38:21;5.18;;;3.40;;
75289;SDS011;63883;48.996;20.804;2023-02-01T15:43:28;11.98;;;7.20;;
75289;SDS011;63883;48.996;20.804;2023-02-01T15:46:01;21.27;;;12.75;;
75289;SDS011;63883;48.996;20.804;2023-02-01T15:48:36;20.25;;;12.18;;
75289;SDS011;63883;48.996;20.804;2023-02-01T15:51:05;22.77;;;12.70;;
75289;SDS011;63883;48.996;20.804;2023-02-01T15:53:37;26.70;;;12.80;;
75289;SDS011;63883;48.996;20.804;2023-02-01T15:56:03;21.58;;;11.77;;
75289;SDS011;63883;48.996;20.804;2023-02-01T15:58:30;30.08;;;15.18;;
75289;SDS011;63883;48.996;20.804;2023-02-01T16:01:02;44.38;;;21.75;;
75289;SDS011;63883;48.996;20.804;2023-02-01T16:03:41;31.77;;;16.17;;
75289;SDS011;63883;48.996;20.804;2023-02-01T16:08:52;58.85;;;27.75;;
75289;SDS011;63883;48.996;20.804;2023-02-01T16:11:28;46.00;;;21.92;;
75289;SDS011;63883;48.996;20.804;2023-02-01T16:13:58;121.13;;;47.90;;
75289;SDS011;63883;48.996;20.804;2023-02-01T16:16:26;52.88;;;24.42;;
75289;SDS011;63883;48.996;20.804;2023-02-01T16:18:52;49.13;;;20.45;;
75289;SDS011;63883;48.996;20.804;2023-02-01T16:21:18;47.28;;;20.15;;
75289;SDS011;63883;48.996;20.804;2023-02-01T16:23:47;53.55;;;22.17;;
75289;SDS011;63883;48.996;20.804;2023-02-01T16:26:14;52.35;;;22.30;;
75289;SDS011;63883;48.996;20.804;2023-02-01T16:28:40;128.23;;;75.38;;
75289;SDS011;63883;48.996;20.804;2023-02-01T16:31:08;133.02;;;68.88;;
75289;SDS011;63883;48.996;20.804;2023-02-01T16:33:44;84.47;;;40.60;;
75289;SDS011;63883;48.996;20.804;2023-02-01T16:36:11;114.55;;;60.33;;
75289;SDS011;63883;48.996;20.804;2023-02-01T16:38:38;139.48;;;65.22;;
75289;SDS011;63883;48.996;20.804;2023-02-01T16:41:04;120.10;;;54.70;;
75289;SDS011;63883;48.996;20.804;2023-02-01T16:43:30;131.02;;;59.92;;
75289;SDS011;63883;48.996;20.804;2023-02-01T16:45:58;106.88;;;48.08;;
75289;SDS011;63883;48.996;20.804;2023-02-01T16:48:28;76.43;;;35.55;;
75289;SDS011;63883;48.996;20.804;2023-02-01T16:50:57;61.15;;;28.10;;
75289;SDS011;63883;48.996;20.804;2023-02-01T16:53:27;40.88;;;17.17;;
75289;SDS011;63883;48.996;20.804;2023-02-01T16:55:55;32.20;;;14.88;;
75289;SDS011;63883;48.996;20.804;2023-02-01T16:58:23;26.60;;;13.23;;
75289;SDS011;63883;48.996;20.804;2023-02-01T17:00:50;29.00;;;14.50;;
75289;SDS011;63883;48.996;20.804;2023-02-01T17:03:17;25.55;;;14.38;;
75289;SDS011;63883;48.996;20.804;2023-02-01T17:05:48;23.08;;;11.13;;
75289;SDS011;63883;48.996;20.804;2023-02-01T17:08:18;20.95;;;9.15;;
75289;SDS011;63883;48.996;20.804;2023-02-01T17:10:50;3.55;;;2.42;;
75289;SDS011;63883;48.996;20.804;2023-02-01T17:13:15;7.18;;;4.35;;
75289;SDS011;63883;48.996;20.804;2023-02-01T17:15:49;7.63;;;4.60;;